createdAt,value
2023-02-07T00:00:50.769Z,11.80
2023-02-07T00:03:56.486Z,11.12
2023-02-07T00:06:58.800Z,11.10
2023-02-07T00:10:01.780Z,12.00
2023-02-07T00:13:06.221Z,11.25
2023-02-07T00:16:09.567Z,13.05
2023-02-07T00:19:11.909Z,12.15
2023-02-07T00:22:14.832Z,11.85
2023-02-07T00:25:18.154Z,12.52
2023-02-07T00:28:20.912Z,12.50
2023-02-07T00:31:27.373Z,12.35
2023-02-07T00:34:31.697Z,11.27
2023-02-07T00:37:34.076Z,12.43
2023-02-07T00:40:38.670Z,12.82
2023-02-07T00:43:45.361Z,11.25
2023-02-07T00:46:48.057Z,11.65
2023-02-07T00:49:50.311Z,12.60
2023-02-07T00:52:53.460Z,11.57
2023-02-07T00:55:55.928Z,11.50
2023-02-07T00:58:59.074Z,11.98
2023-02-07T01:02:01.477Z,11.80
2023-02-07T01:05:07.892Z,13.23
2023-02-07T01:08:10.417Z,12.60
2023-02-07T01:11:16.463Z,13.73
2023-02-07T01:14:18.924Z,10.20
2023-02-07T01:17:21.647Z,12.20
2023-02-07T01:20:24.158Z,11.18
2023-02-07T01:23:26.940Z,10.95
2023-02-07T01:26:29.285Z,9.93
2023-02-07T01:29:31.958Z,10.02
2023-02-07T01:32:34.946Z,12.02
2023-02-07T01:35:39.826Z,11.60
2023-02-07T01:38:43.289Z,9.60
2023-02-07T01:41:45.905Z,11.32
2023-02-07T01:44:51.242Z,9.05
2023-02-07T01:47:55.430Z,12.02
2023-02-07T01:51:05.462Z,8.23
2023-02-07T01:54:11.231Z,10.48
2023-02-07T01:57:17.609Z,11.07
2023-02-07T02:00:20.695Z,9.50
2023-02-07T02:03:27.167Z,8.98
2023-02-07T02:06:32.026Z,9.60
2023-02-07T02:09:34.906Z,10.18
2023-02-07T02:13:05.065Z,9.75
2023-02-07T02:16:36.360Z,9.50
2023-02-07T02:19:51.237Z,9.88
2023-02-07T02:23:17.696Z,9.45
2023-02-07T02:26:43.381Z,10.73
2023-02-07T02:30:24.133Z,10.52
2023-02-07T02:33:42.261Z,8.63
2023-02-07T02:37:10.124Z,9.30
2023-02-07T02:40:15.927Z,10.57
2023-02-07T02:43:59.545Z,8.32
2023-02-07T02:47:03.461Z,11.82
2023-02-07T02:50:12.057Z,8.18
2023-02-07T02:53:16.034Z,9.57
2023-02-07T02:56:40.495Z,11.12
2023-02-07T02:59:58.688Z,8.93
2023-02-07T03:03:29.564Z,10.90
2023-02-07T03:06:41.854Z,8.93
2023-02-07T03:10:18.052Z,10.23
2023-02-07T03:13:58.122Z,9.15
2023-02-07T03:17:29.801Z,8.60
2023-02-07T03:20:46.119Z,9.70
2023-02-07T03:23:52.313Z,10.63
2023-02-07T03:26:59.339Z,8.35
2023-02-07T03:30:07.770Z,10.90
2023-02-07T03:33:13.875Z,11.20
2023-02-07T03:36:29.087Z,9.15
2023-02-07T03:39:33.322Z,9.30
2023-02-07T03:42:49.708Z,10.07
2023-02-07T03:45:52.718Z,9.50
2023-02-07T03:48:56.170Z,9.38
2023-02-07T03:51:59.359Z,9.68
2023-02-07T03:55:02.175Z,8.75
2023-02-07T03:58:07.429Z,9.43
2023-02-07T04:01:10.716Z,8.05
2023-02-07T04:04:13.376Z,10.05
2023-02-07T04:07:15.708Z,8.05
2023-02-07T04:10:18.485Z,8.77
2023-02-07T04:13:20.839Z,9.65
2023-02-07T04:16:23.690Z,10.52
2023-02-07T04:19:28.262Z,8.05
2023-02-07T04:22:32.429Z,7.90
2023-02-07T04:25:34.643Z,7.53
2023-02-07T04:28:37.873Z,7.12
2023-02-07T04:31:42.306Z,9.13
2023-02-07T04:34:45.189Z,8.70
2023-02-07T04:37:47.461Z,9.82
2023-02-07T04:40:50.580Z,9.48
2023-02-07T04:43:53.955Z,8.48
2023-02-07T04:46:57.717Z,7.65
2023-02-07T04:50:00.133Z,8.80
2023-02-07T04:53:02.891Z,8.85
2023-02-07T04:56:05.593Z,8.82
2023-02-07T04:59:08.210Z,11.25
2023-02-07T05:02:10.542Z,9.82
2023-02-07T05:05:13.248Z,8.68
2023-02-07T05:08:15.632Z,9.48
2023-02-07T05:11:19.609Z,10.25
2023-02-07T05:14:21.962Z,8.27
2023-02-07T05:17:24.651Z,8.70
2023-02-07T05:20:27.154Z,8.68
2023-02-07T05:23:29.896Z,9.27
2023-02-07T05:26:34.299Z,9.73
2023-02-07T05:29:37.206Z,9.32
2023-02-07T05:33:03.221Z,10.02
2023-02-07T05:36:11.632Z,10.38
2023-02-07T05:39:16.061Z,9.65
2023-02-07T05:42:19.232Z,9.40
2023-02-07T05:45:21.976Z,8.57
2023-02-07T05:48:24.722Z,10.40
2023-02-07T05:51:27.114Z,9.95
2023-02-07T05:54:30.093Z,12.10
2023-02-07T05:57:32.562Z,9.70
2023-02-07T06:00:35.667Z,12.07
2023-02-07T06:03:38.536Z,9.73
2023-02-07T06:06:43.061Z,9.18
2023-02-07T06:09:46.752Z,9.57
2023-02-07T06:12:49.331Z,9.25
2023-02-07T06:15:52.053Z,10.25
2023-02-07T06:18:54.457Z,9.25
2023-02-07T06:21:57.211Z,10.30
2023-02-07T06:24:59.503Z,10.43
2023-02-07T06:28:03.853Z,10.77
2023-02-07T06:31:06.369Z,11.12
2023-02-07T06:34:09.190Z,12.07
2023-02-07T06:37:12.178Z,10.15
2023-02-07T06:40:14.869Z,10.52
2023-02-07T06:43:20.381Z,9.95
2023-02-07T06:46:23.817Z,10.23
2023-02-07T06:49:26.420Z,11.43
2023-02-07T06:52:29.438Z,10.80
2023-02-07T06:55:36.115Z,10.23
2023-02-07T06:58:39.618Z,12.45
2023-02-07T07:01:43.802Z,11.60
2023-02-07T07:04:47.451Z,11.23
2023-02-07T07:07:51.638Z,11.05
2023-02-07T07:10:56.371Z,13.13
2023-02-07T07:14:02.660Z,13.02
2023-02-07T07:17:07.341Z,13.70
2023-02-07T07:20:10.493Z,13.23
2023-02-07T07:23:13.440Z,12.32
2023-02-07T07:26:16.279Z,12.68
2023-02-07T07:29:20.526Z,13.15
2023-02-07T07:32:33.680Z,13.62
2023-02-07T07:35:38.393Z,15.15
2023-02-07T07:38:44.514Z,15.57
2023-02-07T07:44:55.959Z,12.43
2023-02-07T07:48:01.291Z,13.82
2023-02-07T07:51:05.534Z,14.85
2023-02-07T07:54:08.514Z,13.62
2023-02-07T07:57:10.956Z,14.52
2023-02-07T08:00:14.283Z,14.02
2023-02-07T08:03:17.622Z,14.27
2023-02-07T08:06:21.766Z,13.62
2023-02-07T08:09:24.262Z,12.68
2023-02-07T08:12:31.398Z,12.77
2023-02-07T08:15:34.166Z,13.77
2023-02-07T08:18:40.951Z,13.68
2023-02-07T08:22:00.597Z,13.23
2023-02-07T10:31:12.327Z,11.90
2023-02-07T10:34:28.377Z,12.15
2023-02-07T10:37:38.491Z,12.05
2023-02-07T10:41:08.732Z,13.20
2023-02-07T10:44:18.329Z,11.40
2023-02-07T10:47:21.242Z,11.43
2023-02-07T10:50:30.164Z,10.88
2023-02-07T10:54:01.644Z,9.98
2023-02-07T10:57:17.303Z,10.38
2023-02-07T11:00:26.727Z,8.30
2023-02-07T11:03:30.925Z,9.55
2023-02-07T11:06:36.539Z,10.63
2023-02-07T11:09:39.518Z,10.73
2023-02-07T11:12:47.988Z,11.23
2023-02-07T11:16:08.734Z,11.75
2023-02-07T11:19:20.438Z,10.77
2023-02-07T11:22:25.565Z,11.45
2023-02-07T11:25:36.994Z,12.37
2023-02-07T11:28:39.769Z,11.10
2023-02-07T11:31:44.822Z,10.82
2023-02-07T11:34:54.545Z,12.50
2023-02-07T11:38:05.415Z,13.05
2023-02-07T11:41:23.283Z,13.15
2023-02-07T11:44:29.835Z,12.23
2023-02-07T11:47:35.578Z,12.27
2023-02-07T11:50:43.421Z,13.45
2023-02-07T11:53:53.029Z,12.27
2023-02-07T11:57:06.426Z,11.57
2023-02-07T12:00:26.038Z,11.75
2023-02-07T12:03:42.093Z,12.52
2023-02-07T12:07:01.317Z,12.52
2023-02-07T12:10:15.960Z,11.12
2023-02-07T12:13:29.684Z,12.20
2023-02-07T12:16:41.266Z,12.60
2023-02-07T12:20:12.235Z,11.27
2023-02-07T12:23:46.547Z,12.07
2023-02-07T12:27:12.401Z,11.48
2023-02-07T12:30:30.922Z,10.35
2023-02-07T12:33:55.707Z,10.82
2023-02-07T12:37:06.192Z,10.68
2023-02-07T12:40:37.473Z,9.77
2023-02-07T12:43:48.424Z,12.13
2023-02-07T12:47:38.275Z,12.77
2023-02-07T12:51:04.900Z,10.88
2023-02-07T12:54:40.123Z,12.63
2023-02-07T12:58:04.795Z,10.75
2023-02-07T13:01:23.120Z,11.65
2023-02-07T13:04:46.784Z,11.45
2023-02-07T13:08:00.053Z,10.50
2023-02-07T13:11:20.737Z,11.05
2023-02-07T13:14:53.543Z,11.50
2023-02-07T13:18:26.205Z,12.15
2023-02-07T13:21:53.422Z,11.23
2023-02-07T13:24:56.211Z,11.40
2023-02-07T13:28:04.190Z,11.48
2023-02-07T13:31:11.462Z,11.55
2023-02-07T13:34:31.932Z,11.65
2023-02-07T13:38:20.456Z,13.27
2023-02-07T13:41:41.628Z,12.68
2023-02-07T13:44:46.851Z,11.00
2023-02-07T13:48:29.936Z,13.07
2023-02-07T13:51:52.927Z,11.63
2023-02-07T13:55:22.527Z,12.60
2023-02-07T13:59:20.931Z,11.23
2023-02-07T14:02:23.398Z,11.77
2023-02-07T14:05:32.394Z,10.63
2023-02-07T14:08:35.866Z,11.27
2023-02-07T14:11:47.410Z,12.45
2023-02-07T14:15:02.123Z,12.05
2023-02-07T14:18:45.009Z,12.35
2023-02-07T14:22:19.323Z,13.50
2023-02-07T14:25:40.386Z,11.85
2023-02-07T14:28:46.152Z,11.85
2023-02-07T14:31:50.191Z,12.20
2023-02-07T14:34:58.597Z,10.77
2023-02-07T14:38:05.800Z,11.20
2023-02-07T14:41:16.737Z,13.32
2023-02-07T14:44:32.906Z,11.38
2023-02-07T14:47:36.974Z,11.77
2023-02-07T14:50:39.935Z,11.90
2023-02-07T14:53:45.393Z,11.90
2023-02-07T14:56:51.204Z,11.27
2023-02-07T15:00:07.561Z,12.37
2023-02-07T15:03:19.013Z,12.18
2023-02-07T15:06:31.953Z,11.60
2023-02-07T15:09:35.124Z,12.52
2023-02-07T15:12:37.325Z,11.02
2023-02-07T15:15:51.310Z,11.57
2023-02-07T15:18:55.178Z,11.80
2023-02-07T15:21:58.182Z,11.10
2023-02-07T15:25:03.598Z,12.52
2023-02-07T15:28:25.358Z,11.82
2023-02-07T15:31:29.614Z,10.85
2023-02-07T15:34:35.113Z,11.75
2023-02-07T15:37:39.509Z,12.02
2023-02-07T15:40:42.615Z,10.60
2023-02-07T15:44:02.856Z,11.63
2023-02-07T15:47:07.763Z,11.98
2023-02-07T15:50:14.189Z,12.77
2023-02-07T15:53:24.139Z,11.95
2023-02-07T15:59:33.675Z,12.13
2023-02-07T16:02:39.910Z,11.63
2023-02-07T16:05:42.698Z,11.57
2023-02-07T16:08:45.421Z,12.23
2023-02-07T16:11:48.214Z,13.05
2023-02-07T16:14:50.685Z,11.90
2023-02-07T16:17:54.086Z,11.40
2023-02-07T16:20:56.409Z,13.55
2023-02-07T16:24:08.530Z,13.00
2023-02-07T16:27:31.527Z,13.18
2023-02-07T16:30:38.235Z,13.60
2023-02-07T16:33:41.179Z,15.27
2023-02-07T16:36:44.574Z,18.73
2023-02-07T16:39:47.193Z,18.45
2023-02-07T16:42:52.836Z,22.00
2023-02-07T16:45:55.198Z,20.55
2023-02-07T16:48:58.125Z,23.27
2023-02-07T16:52:00.595Z,23.70
2023-02-07T16:55:03.377Z,23.02
2023-02-07T16:58:07.319Z,23.52
2023-02-07T17:01:18.099Z,19.60
2023-02-07T17:04:21.740Z,17.60
2023-02-07T17:07:25.263Z,18.23
2023-02-07T17:10:32.638Z,17.80
2023-02-07T17:13:35.553Z,17.55
2023-02-07T17:16:38.403Z,18.85
2023-02-07T17:19:41.320Z,20.00
2023-02-07T17:22:43.666Z,19.87
2023-02-07T17:25:47.790Z,20.20
2023-02-07T17:28:51.595Z,19.40
2023-02-07T17:31:54.373Z,20.73
2023-02-07T17:34:56.688Z,21.48
2023-02-07T17:38:00.240Z,19.35
2023-02-07T17:41:02.712Z,19.95
2023-02-07T17:44:06.237Z,20.17
2023-02-07T17:47:09.532Z,20.12
2023-02-07T17:50:22.296Z,20.85
2023-02-07T17:53:24.964Z,19.87
2023-02-07T17:56:32.300Z,20.20
2023-02-07T17:59:34.858Z,20.27
2023-02-07T18:02:37.635Z,22.08
2023-02-07T18:05:42.809Z,22.37
2023-02-07T18:08:47.136Z,20.20
2023-02-07T18:11:50.542Z,24.35
2023-02-07T18:14:53.211Z,25.42
2023-02-07T18:17:59.356Z,24.95
2023-02-07T18:21:03.806Z,26.12
2023-02-07T18:24:07.074Z,23.00
2023-02-07T18:27:09.579Z,22.65
2023-02-07T18:30:15.288Z,22.90
2023-02-07T18:33:19.454Z,25.37
2023-02-07T18:36:26.762Z,24.27
2023-02-07T18:39:29.711Z,22.42
2023-02-07T18:42:32.889Z,21.85
2023-02-07T18:45:38.108Z,23.15
2023-02-07T18:48:41.134Z,25.17
2023-02-07T18:51:44.189Z,24.02
2023-02-07T18:54:47.192Z,20.02
2023-02-07T18:57:50.307Z,21.00
2023-02-07T19:00:53.752Z,22.45
2023-02-07T19:03:58.568Z,21.73
2023-02-07T19:07:02.222Z,19.90
2023-02-07T19:10:05.781Z,21.52
2023-02-07T19:13:09.979Z,21.67
2023-02-07T19:16:18.448Z,21.95
2023-02-07T19:19:21.847Z,21.92
2023-02-07T19:22:35.226Z,20.50
2023-02-07T19:25:47.619Z,20.50
2023-02-07T19:28:52.778Z,20.23
2023-02-07T19:32:01.017Z,21.95
2023-02-07T19:35:03.389Z,22.67
2023-02-07T19:38:07.187Z,19.62
2023-02-07T19:41:10.025Z,20.05
2023-02-07T19:44:13.157Z,20.75
2023-02-07T19:47:15.743Z,21.02
2023-02-07T19:50:20.221Z,19.25
2023-02-07T19:53:22.759Z,19.25
2023-02-07T19:56:27.701Z,20.95
2023-02-07T19:59:30.472Z,20.20
2023-02-07T20:02:33.156Z,21.87
2023-02-07T20:05:35.894Z,21.83
2023-02-07T20:08:39.453Z,21.12
2023-02-07T20:11:41.985Z,21.85
2023-02-07T20:14:44.298Z,21.45
2023-02-07T20:17:47.001Z,20.83
2023-02-07T20:20:55.744Z,21.15
2023-02-07T20:24:00.981Z,21.73
2023-02-07T20:27:03.532Z,20.80
2023-02-07T20:30:07.008Z,21.33
2023-02-07T20:33:09.557Z,20.08
2023-02-07T20:36:15.285Z,21.80
2023-02-07T20:39:20.487Z,21.37
2023-02-07T20:42:23.603Z,21.33
2023-02-07T20:45:28.517Z,20.02
2023-02-07T20:48:31.032Z,20.12
2023-02-07T20:51:33.799Z,22.25
2023-02-07T20:54:36.628Z,23.90
2023-02-07T20:57:39.297Z,20.27
2023-02-07T21:00:43.371Z,20.00
2023-02-07T21:03:46.858Z,21.83
2023-02-07T21:06:50.592Z,21.15
2023-02-07T21:09:53.108Z,22.17
2023-02-07T21:12:56.017Z,20.02
2023-02-07T21:16:03.217Z,20.88
2023-02-07T21:19:06.151Z,21.85
2023-02-07T21:22:08.760Z,20.40
2023-02-07T21:25:12.575Z,22.58
2023-02-07T21:28:15.272Z,23.25
2023-02-07T21:31:22.318Z,23.50
2023-02-07T21:34:25.558Z,23.58
2023-02-07T21:37:28.645Z,22.05
2023-02-07T21:40:30.852Z,22.42
2023-02-07T21:43:33.857Z,21.27
2023-02-07T21:46:39.845Z,22.02
2023-02-07T21:49:43.733Z,20.60
2023-02-07T21:52:45.994Z,20.98
2023-02-07T21:55:49.118Z,19.25
2023-02-07T21:59:05.811Z,22.00
2023-02-07T22:02:12.961Z,21.92
2023-02-07T22:05:15.979Z,20.23
2023-02-07T22:08:18.493Z,21.87
2023-02-07T22:11:22.273Z,22.05
2023-02-07T22:14:30.053Z,22.35
2023-02-07T22:17:32.586Z,21.02
2023-02-07T22:20:35.142Z,21.45
2023-02-07T22:23:37.807Z,23.30
2023-02-07T22:26:40.521Z,23.95
2023-02-07T22:29:43.096Z,23.50
2023-02-07T22:32:45.789Z,24.60
2023-02-07T22:35:48.619Z,25.12
2023-02-07T22:38:51.244Z,23.92
2023-02-07T22:41:57.011Z,22.98
2023-02-07T22:44:59.725Z,23.33
2023-02-07T22:48:03.009Z,24.37
2023-02-07T22:51:36.276Z,22.45
2023-02-07T22:54:38.886Z,23.87
2023-02-07T22:57:41.436Z,24.12
2023-02-07T23:00:44.583Z,22.58
2023-02-07T23:03:47.416Z,25.05
2023-02-07T23:06:51.364Z,22.73
2023-02-07T23:09:54.675Z,20.70
2023-02-07T23:12:57.347Z,21.00
2023-02-07T23:16:00.130Z,19.37
2023-02-07T23:19:19.104Z,23.17
2023-02-07T23:22:21.909Z,21.33
2023-02-07T23:25:24.456Z,23.45
2023-02-07T23:28:27.255Z,20.95
2023-02-07T23:31:29.978Z,21.75
2023-02-07T23:34:32.632Z,22.33
2023-02-07T23:37:36.785Z,21.85
2023-02-07T23:40:39.429Z,24.27
2023-02-07T23:43:42.725Z,24.65
2023-02-07T23:46:44.982Z,23.65
2023-02-07T23:49:49.790Z,22.65
2023-02-07T23:52:52.694Z,22.30
2023-02-07T23:55:58.125Z,22.10
2023-02-07T23:59:00.744Z,18.75
